sensor_id;sensor_type;location;lat;lon;timestamp;P1;durP1;ratioP1;P2;durP2;ratioP2
40367;SDS011;26075;43.320;21.920;2023-04-16T00:01:54;16.83;;;10.27;;
40367;SDS011;26075;43.320;21.920;2023-04-16T00:06:55;15.45;;;9.52;;
40367;SDS011;26075;43.320;21.920;2023-04-16T00:11:56;16.63;;;9.38;;
40367;SDS011;26075;43.320;21.920;2023-04-16T00:16:56;17.25;;;9.50;;
40367;SDS011;26075;43.320;21.920;2023-04-16T00:21:57;17.05;;;9.90;;
40367;SDS011;26075;43.320;21.920;2023-04-16T00:26:58;15.02;;;9.35;;
40367;SDS011;26075;43.320;21.920;2023-04-16T00:31:59;17.63;;;9.18;;
40367;SDS011;26075;43.320;21.920;2023-04-16T00:36:59;17.52;;;8.75;;
40367;SDS011;26075;43.320;21.920;2023-04-16T00:42:00;13.35;;;8.35;;
40367;SDS011;26075;43.320;21.920;2023-04-16T00:47:01;16.33;;;8.52;;
40367;SDS011;26075;43.320;21.920;2023-04-16T00:52:03;11.60;;;7.25;;
40367;SDS011;26075;43.320;21.920;2023-04-16T00:57:03;14.60;;;7.82;;
40367;SDS011;26075;43.320;21.920;2023-04-16T01:02:05;12.48;;;6.65;;
40367;SDS011;26075;43.320;21.920;2023-04-16T01:07:07;12.52;;;7.93;;
40367;SDS011;26075;43.320;21.920;2023-04-16T01:12:08;10.60;;;6.72;;
40367;SDS011;26075;43.320;21.920;2023-04-16T01:17:08;10.73;;;7.03;;
40367;SDS011;26075;43.320;21.920;2023-04-16T01:22:09;13.43;;;6.93;;
40367;SDS011;26075;43.320;21.920;2023-04-16T01:27:10;12.13;;;6.70;;
40367;SDS011;26075;43.320;21.920;2023-04-16T01:32:11;14.23;;;7.40;;
40367;SDS011;26075;43.320;21.920;2023-04-16T01:37:12;11.43;;;7.25;;
40367;SDS011;26075;43.320;21.920;2023-04-16T01:42:14;13.90;;;8.75;;
40367;SDS011;26075;43.320;21.920;2023-04-16T01:47:14;11.48;;;7.88;;
40367;SDS011;26075;43.320;21.920;2023-04-16T01:52:15;13.00;;;8.18;;
40367;SDS011;26075;43.320;21.920;2023-04-16T01:57:16;12.52;;;7.78;;
40367;SDS011;26075;43.320;21.920;2023-04-16T02:02:17;17.08;;;8.23;;
40367;SDS011;26075;43.320;21.920;2023-04-16T02:07:18;14.55;;;8.43;;
40367;SDS011;26075;43.320;21.920;2023-04-16T02:12:37;12.02;;;7.82;;
40367;SDS011;26075;43.320;21.920;2023-04-16T02:17:37;11.95;;;7.50;;
40367;SDS011;26075;43.320;21.920;2023-04-16T02:22:38;11.70;;;7.07;;
40367;SDS011;26075;43.320;21.920;2023-04-16T02:27:39;12.10;;;7.35;;
40367;SDS011;26075;43.320;21.920;2023-04-16T02:32:40;10.63;;;6.90;;
40367;SDS011;26075;43.320;21.920;2023-04-16T02:37:40;10.63;;;6.70;;
40367;SDS011;26075;43.320;21.920;2023-04-16T02:42:41;10.65;;;6.88;;
40367;SDS011;26075;43.320;21.920;2023-04-16T02:47:43;11.13;;;7.60;;
40367;SDS011;26075;43.320;21.920;2023-04-16T02:52:45;14.23;;;7.63;;
40367;SDS011;26075;43.320;21.920;2023-04-16T02:57:51;13.02;;;7.57;;
40367;SDS011;26075;43.320;21.920;2023-04-16T03:02:52;11.90;;;7.65;;
40367;SDS011;26075;43.320;21.920;2023-04-16T03:07:53;13.50;;;7.82;;
40367;SDS011;26075;43.320;21.920;2023-04-16T03:12:55;12.77;;;7.50;;
40367;SDS011;26075;43.320;21.920;2023-04-16T03:17:56;13.63;;;8.02;;
40367;SDS011;26075;43.320;21.920;2023-04-16T03:22:57;13.48;;;8.13;;
40367;SDS011;26075;43.320;21.920;2023-04-16T03:27:57;13.20;;;8.30;;
40367;SDS011;26075;43.320;21.920;2023-04-16T03:32:58;13.38;;;8.02;;
40367;SDS011;26075;43.320;21.920;2023-04-16T03:37:59;14.05;;;8.15;;
40367;SDS011;26075;43.320;21.920;2023-04-16T03:43:01;12.52;;;7.80;;
40367;SDS011;26075;43.320;21.920;2023-04-16T03:48:01;15.85;;;8.07;;
40367;SDS011;26075;43.320;21.920;2023-04-16T03:53:02;12.45;;;7.43;;
40367;SDS011;26075;43.320;21.920;2023-04-16T03:58:03;15.20;;;7.65;;
40367;SDS011;26075;43.320;21.920;2023-04-16T04:03:04;10.88;;;7.07;;
40367;SDS011;26075;43.320;21.920;2023-04-16T04:08:04;13.18;;;7.70;;
40367;SDS011;26075;43.320;21.920;2023-04-16T04:13:06;12.45;;;6.72;;
40367;SDS011;26075;43.320;21.920;2023-04-16T04:18:06;11.38;;;6.53;;
40367;SDS011;26075;43.320;21.920;2023-04-16T04:23:07;10.23;;;6.82;;
40367;SDS011;26075;43.320;21.920;2023-04-16T04:28:11;13.88;;;6.57;;
40367;SDS011;26075;43.320;21.920;2023-04-16T04:33:11;9.50;;;6.43;;
40367;SDS011;26075;43.320;21.920;2023-04-16T04:38:14;12.73;;;6.95;;
40367;SDS011;26075;43.320;21.920;2023-04-16T04:43:20;10.77;;;5.80;;
40367;SDS011;26075;43.320;21.920;2023-04-16T04:48:27;8.60;;;5.10;;
40367;SDS011;26075;43.320;21.920;2023-04-16T04:53:28;11.95;;;5.90;;
40367;SDS011;26075;43.320;21.920;2023-04-16T04:58:29;8.63;;;4.57;;
40367;SDS011;26075;43.320;21.920;2023-04-16T05:03:31;10.02;;;5.15;;
40367;SDS011;26075;43.320;21.920;2023-04-16T05:08:32;8.18;;;4.05;;
40367;SDS011;26075;43.320;21.920;2023-04-16T05:13:32;11.27;;;4.65;;
40367;SDS011;26075;43.320;21.920;2023-04-16T05:18:33;7.90;;;4.00;;
40367;SDS011;26075;43.320;21.920;2023-04-16T05:23:34;11.65;;;4.43;;
40367;SDS011;26075;43.320;21.920;2023-04-16T05:28:35;8.48;;;4.88;;
40367;SDS011;26075;43.320;21.920;2023-04-16T05:33:35;9.82;;;5.10;;
40367;SDS011;26075;43.320;21.920;2023-04-16T05:38:36;11.32;;;4.90;;
40367;SDS011;26075;43.320;21.920;2023-04-16T05:43:37;10.50;;;4.70;;
40367;SDS011;26075;43.320;21.920;2023-04-16T05:48:37;10.35;;;5.38;;
40367;SDS011;26075;43.320;21.920;2023-04-16T05:53:38;12.88;;;5.60;;
40367;SDS011;26075;43.320;21.920;2023-04-16T05:58:46;12.18;;;6.70;;
40367;SDS011;26075;43.320;21.920;2023-04-16T06:03:49;12.38;;;7.70;;
40367;SDS011;26075;43.320;21.920;2023-04-16T06:08:50;14.55;;;7.95;;
40367;SDS011;26075;43.320;21.920;2023-04-16T06:13:54;13.52;;;7.90;;
40367;SDS011;26075;43.320;21.920;2023-04-16T06:18:55;13.93;;;8.45;;
40367;SDS011;26075;43.320;21.920;2023-04-16T06:23:57;12.80;;;8.18;;
40367;SDS011;26075;43.320;21.920;2023-04-16T06:28:58;15.02;;;8.20;;
40367;SDS011;26075;43.320;21.920;2023-04-16T06:33:58;14.75;;;7.90;;
40367;SDS011;26075;43.320;21.920;2023-04-16T06:38:59;12.95;;;7.55;;
40367;SDS011;26075;43.320;21.920;2023-04-16T06:44:00;12.93;;;7.75;;
40367;SDS011;26075;43.320;21.920;2023-04-16T06:49:00;12.98;;;7.13;;
40367;SDS011;26075;43.320;21.920;2023-04-16T06:54:06;10.27;;;7.18;;
40367;SDS011;26075;43.320;21.920;2023-04-16T06:59:07;10.95;;;6.75;;
40367;SDS011;26075;43.320;21.920;2023-04-16T07:04:08;11.45;;;7.43;;
40367;SDS011;26075;43.320;21.920;2023-04-16T07:09:08;10.82;;;7.60;;
40367;SDS011;26075;43.320;21.920;2023-04-16T07:14:09;13.00;;;7.53;;
40367;SDS011;26075;43.320;21.920;2023-04-16T07:19:10;12.38;;;7.38;;
40367;SDS011;26075;43.320;21.920;2023-04-16T07:24:11;14.32;;;7.55;;
40367;SDS011;26075;43.320;21.920;2023-04-16T07:29:12;12.90;;;7.43;;
40367;SDS011;26075;43.320;21.920;2023-04-16T07:34:12;12.18;;;7.50;;
40367;SDS011;26075;43.320;21.920;2023-04-16T07:39:13;14.55;;;8.32;;
40367;SDS011;26075;43.320;21.920;2023-04-16T07:44:14;14.25;;;7.22;;
40367;SDS011;26075;43.320;21.920;2023-04-16T07:49:15;10.43;;;6.55;;
40367;SDS011;26075;43.320;21.920;2023-04-16T07:54:16;10.90;;;6.47;;
40367;SDS011;26075;43.320;21.920;2023-04-16T07:59:16;9.68;;;6.13;;
40367;SDS011;26075;43.320;21.920;2023-04-16T08:04:19;10.43;;;5.47;;
40367;SDS011;26075;43.320;21.920;2023-04-16T08:09:25;8.85;;;5.25;;
40367;SDS011;26075;43.320;21.920;2023-04-16T08:14:26;11.82;;;5.10;;
40367;SDS011;26075;43.320;21.920;2023-04-16T08:19:27;8.50;;;4.68;;
40367;SDS011;26075;43.320;21.920;2023-04-16T08:24:40;7.53;;;4.28;;
40367;SDS011;26075;43.320;21.920;2023-04-16T08:29:41;7.10;;;4.18;;
40367;SDS011;26075;43.320;21.920;2023-04-16T08:34:42;9.10;;;4.63;;
40367;SDS011;26075;43.320;21.920;2023-04-16T08:39:43;6.80;;;4.13;;
40367;SDS011;26075;43.320;21.920;2023-04-16T08:44:46;12.98;;;4.40;;
40367;SDS011;26075;43.320;21.920;2023-04-16T08:49:48;9.77;;;4.38;;
40367;SDS011;26075;43.320;21.920;2023-04-16T08:55:12;9.15;;;3.55;;
40367;SDS011;26075;43.320;21.920;2023-04-16T09:00:14;7.55;;;3.95;;
40367;SDS011;26075;43.320;21.920;2023-04-16T09:05:15;5.90;;;3.30;;
40367;SDS011;26075;43.320;21.920;2023-04-16T09:10:18;8.07;;;3.78;;
40367;SDS011;26075;43.320;21.920;2023-04-16T09:15:21;7.43;;;3.53;;
40367;SDS011;26075;43.320;21.920;2023-04-16T09:20:22;7.88;;;3.55;;
40367;SDS011;26075;43.320;21.920;2023-04-16T09:25:23;9.10;;;3.47;;
40367;SDS011;26075;43.320;21.920;2023-04-16T09:30:25;6.82;;;3.33;;
40367;SDS011;26075;43.320;21.920;2023-04-16T09:35:26;8.05;;;3.42;;
40367;SDS011;26075;43.320;21.920;2023-04-16T09:41:06;6.63;;;3.30;;
40367;SDS011;26075;43.320;21.920;2023-04-16T09:46:08;6.30;;;3.33;;
40367;SDS011;26075;43.320;21.920;2023-04-16T09:51:11;6.70;;;3.05;;
40367;SDS011;26075;43.320;21.920;2023-04-16T09:56:12;6.00;;;2.65;;
40367;SDS011;26075;43.320;21.920;2023-04-16T10:01:13;5.50;;;2.78;;
40367;SDS011;26075;43.320;21.920;2023-04-16T10:06:16;7.32;;;2.97;;
40367;SDS011;26075;43.320;21.920;2023-04-16T10:11:21;5.78;;;2.60;;
40367;SDS011;26075;43.320;21.920;2023-04-16T10:16:21;4.80;;;2.50;;
40367;SDS011;26075;43.320;21.920;2023-04-16T10:21:23;7.53;;;2.78;;
40367;SDS011;26075;43.320;21.920;2023-04-16T10:26:23;5.40;;;2.75;;
40367;SDS011;26075;43.320;21.920;2023-04-16T10:31:25;5.18;;;2.60;;
40367;SDS011;26075;43.320;21.920;2023-04-16T10:36:27;5.10;;;2.17;;
40367;SDS011;26075;43.320;21.920;2023-04-16T10:41:29;4.90;;;2.67;;
40367;SDS011;26075;43.320;21.920;2023-04-16T10:46:36;5.72;;;1.85;;
40367;SDS011;26075;43.320;21.920;2023-04-16T10:51:38;5.88;;;1.70;;
40367;SDS011;26075;43.320;21.920;2023-04-16T10:56:39;7.68;;;2.55;;
40367;SDS011;26075;43.320;21.920;2023-04-16T11:01:44;5.80;;;2.30;;
40367;SDS011;26075;43.320;21.920;2023-04-16T11:12:05;5.50;;;2.95;;
40367;SDS011;26075;43.320;21.920;2023-04-16T11:17:09;6.25;;;2.25;;
40367;SDS011;26075;43.320;21.920;2023-04-16T11:22:13;6.82;;;2.22;;
40367;SDS011;26075;43.320;21.920;2023-04-16T11:27:16;4.88;;;2.20;;
40367;SDS011;26075;43.320;21.920;2023-04-16T11:32:21;5.97;;;2.22;;
40367;SDS011;26075;43.320;21.920;2023-04-16T11:37:40;5.90;;;2.78;;
40367;SDS011;26075;43.320;21.920;2023-04-16T11:42:41;6.60;;;1.80;;
40367;SDS011;26075;43.320;21.920;2023-04-16T11:47:49;5.75;;;2.33;;
40367;SDS011;26075;43.320;21.920;2023-04-16T11:52:53;6.22;;;2.25;;
40367;SDS011;26075;43.320;21.920;2023-04-16T11:57:55;6.10;;;2.03;;
40367;SDS011;26075;43.320;21.920;2023-04-16T12:03:35;4.30;;;2.08;;
40367;SDS011;26075;43.320;21.920;2023-04-16T12:08:37;4.63;;;2.00;;
40367;SDS011;26075;43.320;21.920;2023-04-16T12:13:38;4.43;;;2.10;;
40367;SDS011;26075;43.320;21.920;2023-04-16T12:18:43;5.35;;;2.20;;
40367;SDS011;26075;43.320;21.920;2023-04-16T12:24:03;7.20;;;2.20;;
40367;SDS011;26075;43.320;21.920;2023-04-16T12:29:24;4.13;;;2.03;;
40367;SDS011;26075;43.320;21.920;2023-04-16T12:34:26;4.97;;;2.22;;
40367;SDS011;26075;43.320;21.920;2023-04-16T12:39:28;4.30;;;2.10;;
40367;SDS011;26075;43.320;21.920;2023-04-16T12:44:28;4.70;;;2.58;;
40367;SDS011;26075;43.320;21.920;2023-04-16T12:49:29;7.32;;;2.67;;
40367;SDS011;26075;43.320;21.920;2023-04-16T12:54:30;6.53;;;1.95;;
40367;SDS011;26075;43.320;21.920;2023-04-16T12:59:31;5.55;;;2.72;;
40367;SDS011;26075;43.320;21.920;2023-04-16T13:04:32;6.70;;;2.95;;
40367;SDS011;26075;43.320;21.920;2023-04-16T13:09:33;11.07;;;3.38;;
40367;SDS011;26075;43.320;21.920;2023-04-16T13:14:34;5.75;;;2.95;;
40367;SDS011;26075;43.320;21.920;2023-04-16T13:19:35;5.88;;;2.47;;
40367;SDS011;26075;43.320;21.920;2023-04-16T13:24:36;6.22;;;2.80;;
40367;SDS011;26075;43.320;21.920;2023-04-16T13:29:37;5.03;;;1.88;;
40367;SDS011;26075;43.320;21.920;2023-04-16T13:34:37;9.07;;;4.47;;
40367;SDS011;26075;43.320;21.920;2023-04-16T13:39:38;6.53;;;3.00;;
40367;SDS011;26075;43.320;21.920;2023-04-16T13:44:39;5.60;;;2.88;;
40367;SDS011;26075;43.320;21.920;2023-04-16T13:49:40;5.15;;;2.67;;
40367;SDS011;26075;43.320;21.920;2023-04-16T13:54:41;6.18;;;3.10;;
40367;SDS011;26075;43.320;21.920;2023-04-16T13:59:41;7.05;;;3.58;;
40367;SDS011;26075;43.320;21.920;2023-04-16T14:04:43;5.05;;;2.47;;
40367;SDS011;26075;43.320;21.920;2023-04-16T14:09:43;10.65;;;3.58;;
40367;SDS011;26075;43.320;21.920;2023-04-16T14:14:44;6.13;;;3.58;;
40367;SDS011;26075;43.320;21.920;2023-04-16T14:19:45;6.18;;;2.75;;
40367;SDS011;26075;43.320;21.920;2023-04-16T14:24:46;5.38;;;3.00;;
40367;SDS011;26075;43.320;21.920;2023-04-16T14:29:47;5.15;;;3.00;;
40367;SDS011;26075;43.320;21.920;2023-04-16T14:34:49;4.65;;;2.83;;
40367;SDS011;26075;43.320;21.920;2023-04-16T14:39:50;8.30;;;2.45;;
40367;SDS011;26075;43.320;21.920;2023-04-16T14:44:51;5.65;;;3.00;;
40367;SDS011;26075;43.320;21.920;2023-04-16T14:49:52;9.23;;;2.90;;
40367;SDS011;26075;43.320;21.920;2023-04-16T14:55:13;5.65;;;2.53;;
40367;SDS011;26075;43.320;21.920;2023-04-16T15:00:13;6.45;;;2.70;;
40367;SDS011;26075;43.320;21.920;2023-04-16T15:05:17;5.60;;;2.75;;
40367;SDS011;26075;43.320;21.920;2023-04-16T15:10:18;5.28;;;2.75;;
40367;SDS011;26075;43.320;21.920;2023-04-16T15:15:19;5.63;;;3.20;;
40367;SDS011;26075;43.320;21.920;2023-04-16T15:20:20;5.35;;;2.72;;
40367;SDS011;26075;43.320;21.920;2023-04-16T15:25:21;5.53;;;3.15;;
40367;SDS011;26075;43.320;21.920;2023-04-16T15:30:23;4.60;;;2.63;;
40367;SDS011;26075;43.320;21.920;2023-04-16T15:35:23;4.93;;;2.85;;
40367;SDS011;26075;43.320;21.920;2023-04-16T15:40:24;4.68;;;2.60;;
40367;SDS011;26075;43.320;21.920;2023-04-16T15:45:25;9.95;;;4.28;;
40367;SDS011;26075;43.320;21.920;2023-04-16T15:50:26;6.15;;;2.83;;
40367;SDS011;26075;43.320;21.920;2023-04-16T15:55:27;7.05;;;2.97;;
40367;SDS011;26075;43.320;21.920;2023-04-16T16:00:28;6.10;;;2.63;;
40367;SDS011;26075;43.320;21.920;2023-04-16T16:05:28;5.55;;;3.05;;
40367;SDS011;26075;43.320;21.920;2023-04-16T16:10:29;5.20;;;2.80;;
40367;SDS011;26075;43.320;21.920;2023-04-16T16:15:30;4.25;;;2.47;;
40367;SDS011;26075;43.320;21.920;2023-04-16T16:20:31;5.68;;;2.60;;
40367;SDS011;26075;43.320;21.920;2023-04-16T16:25:33;9.77;;;4.03;;
40367;SDS011;26075;43.320;21.920;2023-04-16T16:30:34;6.13;;;3.47;;
40367;SDS011;26075;43.320;21.920;2023-04-16T16:35:35;5.47;;;3.20;;
40367;SDS011;26075;43.320;21.920;2023-04-16T16:40:36;7.35;;;3.67;;
40367;SDS011;26075;43.320;21.920;2023-04-16T16:45:37;6.50;;;3.28;;
40367;SDS011;26075;43.320;21.920;2023-04-16T16:50:38;6.45;;;3.97;;
40367;SDS011;26075;43.320;21.920;2023-04-16T16:55:39;8.27;;;4.40;;
40367;SDS011;26075;43.320;21.920;2023-04-16T17:00:39;8.05;;;4.65;;
40367;SDS011;26075;43.320;21.920;2023-04-16T17:05:40;10.55;;;5.40;;
40367;SDS011;26075;43.320;21.920;2023-04-16T17:10:41;15.40;;;7.90;;
40367;SDS011;26075;43.320;21.920;2023-04-16T17:15:42;10.18;;;5.65;;
40367;SDS011;26075;43.320;21.920;2023-04-16T17:20:43;11.88;;;7.32;;
40367;SDS011;26075;43.320;21.920;2023-04-16T17:25:44;11.85;;;6.68;;
40367;SDS011;26075;43.320;21.920;2023-04-16T17:30:49;11.93;;;6.93;;
40367;SDS011;26075;43.320;21.920;2023-04-16T17:35:50;10.73;;;6.90;;
40367;SDS011;26075;43.320;21.920;2023-04-16T17:40:51;10.05;;;6.15;;
40367;SDS011;26075;43.320;21.920;2023-04-16T17:45:51;10.45;;;6.13;;
40367;SDS011;26075;43.320;21.920;2023-04-16T17:50:52;8.77;;;5.30;;
40367;SDS011;26075;43.320;21.920;2023-04-16T17:55:53;9.95;;;5.85;;
40367;SDS011;26075;43.320;21.920;2023-04-16T18:00:54;8.23;;;5.38;;
40367;SDS011;26075;43.320;21.920;2023-04-16T18:05:54;8.88;;;5.53;;
40367;SDS011;26075;43.320;21.920;2023-04-16T18:10:55;8.48;;;6.00;;
40367;SDS011;26075;43.320;21.920;2023-04-16T18:15:56;9.85;;;5.47;;
40367;SDS011;26075;43.320;21.920;2023-04-16T18:20:57;9.55;;;5.43;;
40367;SDS011;26075;43.320;21.920;2023-04-16T18:25:58;10.20;;;6.22;;
40367;SDS011;26075;43.320;21.920;2023-04-16T18:30:59;9.45;;;5.95;;
40367;SDS011;26075;43.320;21.920;2023-04-16T18:36:04;8.63;;;5.90;;
40367;SDS011;26075;43.320;21.920;2023-04-16T18:41:05;7.00;;;4.28;;
40367;SDS011;26075;43.320;21.920;2023-04-16T18:46:06;12.80;;;6.22;;
40367;SDS011;26075;43.320;21.920;2023-04-16T18:51:07;8.07;;;5.38;;
40367;SDS011;26075;43.320;21.920;2023-04-16T18:56:07;10.70;;;5.70;;
40367;SDS011;26075;43.320;21.920;2023-04-16T19:01:08;8.68;;;5.70;;
40367;SDS011;26075;43.320;21.920;2023-04-16T19:06:12;8.75;;;5.60;;
40367;SDS011;26075;43.320;21.920;2023-04-16T19:11:12;9.30;;;5.43;;
40367;SDS011;26075;43.320;21.920;2023-04-16T19:16:14;10.90;;;4.78;;
40367;SDS011;26075;43.320;21.920;2023-04-16T19:21:14;7.90;;;5.10;;
40367;SDS011;26075;43.320;21.920;2023-04-16T19:26:15;8.88;;;5.38;;
40367;SDS011;26075;43.320;21.920;2023-04-16T19:31:16;8.45;;;5.38;;
40367;SDS011;26075;43.320;21.920;2023-04-16T19:36:17;9.52;;;6.13;;
40367;SDS011;26075;43.320;21.920;2023-04-16T19:41:18;7.80;;;4.95;;
40367;SDS011;26075;43.320;21.920;2023-04-16T19:46:19;13.98;;;5.10;;
40367;SDS011;26075;43.320;21.920;2023-04-16T19:51:19;8.40;;;5.25;;
40367;SDS011;26075;43.320;21.920;2023-04-16T19:56:20;8.75;;;4.97;;
40367;SDS011;26075;43.320;21.920;2023-04-16T20:01:21;9.60;;;5.00;;
40367;SDS011;26075;43.320;21.920;2023-04-16T20:06:22;8.18;;;5.00;;
40367;SDS011;26075;43.320;21.920;2023-04-16T20:11:26;6.97;;;4.37;;
40367;SDS011;26075;43.320;21.920;2023-04-16T20:16:28;8.13;;;5.07;;
40367;SDS011;26075;43.320;21.920;2023-04-16T20:21:30;7.75;;;4.70;;
40367;SDS011;26075;43.320;21.920;2023-04-16T20:26:31;8.85;;;5.10;;
40367;SDS011;26075;43.320;21.920;2023-04-16T20:31:33;7.57;;;4.40;;
40367;SDS011;26075;43.320;21.920;2023-04-16T20:36:33;8.45;;;4.50;;
40367;SDS011;26075;43.320;21.920;2023-04-16T20:41:35;6.82;;;3.90;;
40367;SDS011;26075;43.320;21.920;2023-04-16T20:46:39;8.07;;;4.23;;
40367;SDS011;26075;43.320;21.920;2023-04-16T20:51:40;6.20;;;3.70;;
40367;SDS011;26075;43.320;21.920;2023-04-16T20:56:41;7.40;;;4.15;;
40367;SDS011;26075;43.320;21.920;2023-04-16T21:01:43;6.13;;;3.50;;
40367;SDS011;26075;43.320;21.920;2023-04-16T21:06:44;7.40;;;3.83;;
40367;SDS011;26075;43.320;21.920;2023-04-16T21:11:45;7.07;;;4.03;;
40367;SDS011;26075;43.320;21.920;2023-04-16T21:16:46;7.15;;;4.03;;
40367;SDS011;26075;43.320;21.920;2023-04-16T21:21:47;6.35;;;3.22;;
40367;SDS011;26075;43.320;21.920;2023-04-16T21:26:48;8.20;;;4.38;;
40367;SDS011;26075;43.320;21.920;2023-04-16T21:31:48;6.25;;;3.80;;
40367;SDS011;26075;43.320;21.920;2023-04-16T21:36:50;5.57;;;3.13;;
40367;SDS011;26075;43.320;21.920;2023-04-16T21:41:51;6.13;;;3.67;;
40367;SDS011;26075;43.320;21.920;2023-04-16T21:46:52;6.70;;;3.88;;
40367;SDS011;26075;43.320;21.920;2023-04-16T21:51:53;10.38;;;4.13;;
40367;SDS011;26075;43.320;21.920;2023-04-16T21:56:58;6.05;;;3.40;;
40367;SDS011;26075;43.320;21.920;2023-04-16T22:01:58;6.65;;;3.78;;
40367;SDS011;26075;43.320;21.920;2023-04-16T22:06:59;6.03;;;3.83;;
40367;SDS011;26075;43.320;21.920;2023-04-16T22:12:02;5.75;;;3.30;;
40367;SDS011;26075;43.320;21.920;2023-04-16T22:17:06;9.10;;;2.95;;
40367;SDS011;26075;43.320;21.920;2023-04-16T22:22:08;5.88;;;3.13;;
40367;SDS011;26075;43.320;21.920;2023-04-16T22:27:09;6.07;;;3.00;;
40367;SDS011;26075;43.320;21.920;2023-04-16T22:32:10;6.22;;;3.13;;
40367;SDS011;26075;43.320;21.920;2023-04-16T22:37:11;4.85;;;2.97;;
40367;SDS011;26075;43.320;21.920;2023-04-16T22:42:12;6.13;;;2.70;;
40367;SDS011;26075;43.320;21.920;2023-04-16T22:47:13;4.13;;;2.60;;
40367;SDS011;26075;43.320;21.920;2023-04-16T22:52:14;6.78;;;3.20;;
40367;SDS011;26075;43.320;21.920;2023-04-16T22:57:15;5.38;;;2.83;;
40367;SDS011;26075;43.320;21.920;2023-04-16T23:02:19;5.60;;;2.38;;
40367;SDS011;26075;43.320;21.920;2023-04-16T23:07:20;5.80;;;2.60;;
40367;SDS011;26075;43.320;21.920;2023-04-16T23:12:21;5.88;;;2.97;;
40367;SDS011;26075;43.320;21.920;2023-04-16T23:17:22;3.85;;;2.40;;
40367;SDS011;26075;43.320;21.920;2023-04-16T23:22:23;4.80;;;2.80;;
40367;SDS011;26075;43.320;21.920;2023-04-16T23:27:44;4.57;;;2.63;;
40367;SDS011;26075;43.320;21.920;2023-04-16T23:32:45;5.85;;;2.97;;
40367;SDS011;26075;43.320;21.920;2023-04-16T23:37:46;6.45;;;2.70;;
40367;SDS011;26075;43.320;21.920;2023-04-16T23:42:47;7.80;;;2.67;;
40367;SDS011;26075;43.320;21.920;2023-04-16T23:47:48;6.40;;;2.75;;
40367;SDS011;26075;43.320;21.920;2023-04-16T23:52:50;4.90;;;2.50;;
40367;SDS011;26075;43.320;21.920;2023-04-16T23:57:51;9.93;;;3.28;;
